Aviation Digital Data Service (ADDS)

Output produced by METARs form (1931 UTC 18 April 2019)
found at http://www.aviationweather.gov/metar/data/
 
Forecast for: DNMA (MAIDUGURI , NG)
Text: TAF DNMA 181545Z 1818/1924 04008KT 5000 HZ NSC
Forecast period: 1800 UTC 18 April 2019 to 0200 UTC 19 April 2019
Forecast type: FROM: standard forecast or significant change
Winds: from the NE (40 degrees) at 9 MPH (8 knots; 4.1 m/s)
Visibility: 3 miles (5 km)
Ceiling: unknown
Clouds: missing
Weather: HZ  (haze)
Text: BECMG 1902/1904 1500
Forecast period: 0200 UTC 19 April 2019 to 0000 UTC 20 April 2019
Forecast type: BECOMING: Conditions expected to become as follows by 0400 UTC 19 April 2019
Winds: from the NE (40 degrees) at 9 MPH (8 knots; 4.1 m/s)
Visibility: 0.93 miles (1.50 km)
Ceiling: unknown
Clouds: missing
Weather: HZ  (haze)